Terminal Aerodrome Forecast
Issued by NWS

Home | Current Version | Previous Version | Text Only | Print | Product List | Glossary On
Versions: 1 2 3 4 5 6 7 8 9 10 11 12 13 14 15 16 17 18 19 20 21 22 23 24
209
FTUS41 KOKX 242342
TAFSWF
TAF
KSWF 242342Z 2500/2606 VRB05KT P6SM -RA BKN050 BKN120
     FM250600 08006KT 6SM -RA BR OVC050
     FM251000 08007KT 5SM -RA BR SCT015 OVC050
     FM251200 09010G16KT 3SM -RA BR SCT008 OVC012
     FM251600 09014G20KT 2SM -RA BR OVC008
     FM252100 09015G21KT 1SM -RA BR OVC005
      AMD NOT SKED=

USA.gov is the U.S. government's official web portal to all federal, state and local government web resources and services.